createdAt,value
2023-04-22T00:07:43.521Z,100566.97
2023-04-22T00:17:51.272Z,100569.63
2023-04-22T00:27:54.415Z,100567.97
2023-04-22T00:37:56.762Z,100558.56
2023-04-22T00:47:58.766Z,100555.97
2023-04-22T00:58:03.010Z,100560.28
2023-04-22T01:08:04.960Z,100567.13
2023-04-22T01:18:07.432Z,100569.56
2023-04-22T01:28:17.596Z,100556.84
2023-04-22T01:38:19.485Z,100568.69
2023-04-22T01:48:21.498Z,100564.47
2023-04-22T01:58:24.393Z,100559.25
2023-04-22T02:08:26.409Z,100556.72
2023-04-22T02:18:34.595Z,100554.19
2023-04-22T02:28:36.575Z,100554.81
2023-04-22T02:38:39.019Z,100552.31
2023-04-22T02:48:42.877Z,100544.63
2023-04-22T02:59:04.308Z,100544.50
2023-04-22T03:09:06.397Z,100545.28
2023-04-22T03:19:08.277Z,100551.31
2023-04-22T03:29:14.241Z,100560.56
2023-04-22T03:39:16.182Z,100568.00
2023-04-22T03:49:18.043Z,100569.25
2023-04-22T03:59:31.937Z,100574.59
2023-04-22T04:09:33.940Z,100576.44
2023-04-22T04:19:37.305Z,100581.63
2023-04-22T04:29:40.003Z,100583.06
2023-04-22T04:39:42.659Z,100581.81
2023-04-22T04:49:46.063Z,100582.47
2023-04-22T04:59:47.937Z,100584.38
2023-04-22T05:09:49.958Z,100583.72
2023-04-22T05:19:51.898Z,100583.66
2023-04-22T05:29:53.947Z,100579.22
2023-04-22T05:39:56.167Z,100578.63
2023-04-22T05:49:58.213Z,100560.47
2023-04-22T06:00:05.577Z,100558.00
2023-04-22T06:10:09.667Z,100561.50
2023-04-22T06:20:12.501Z,100560.06
2023-04-22T06:30:14.686Z,100558.50
2023-04-22T06:40:16.683Z,100547.59
2023-04-22T06:50:20.247Z,100548.47
2023-04-22T07:00:22.299Z,100542.09
2023-04-22T07:10:24.800Z,100537.81
2023-04-22T07:20:26.714Z,100546.72
2023-04-22T07:30:28.678Z,100538.78
2023-04-22T07:40:30.654Z,100536.59
2023-04-22T07:50:53.979Z,100526.25
2023-04-22T08:01:12.508Z,100535.47
2023-04-22T08:11:33.685Z,100524.66
2023-04-22T08:21:37.471Z,100524.00
2023-04-22T08:31:45.457Z,100525.31
2023-04-22T08:42:05.908Z,100520.97
2023-04-22T08:52:09.676Z,100508.41
2023-04-22T09:02:24.496Z,100503.13
2023-04-22T09:12:33.424Z,100501.19
2023-04-22T09:22:45.363Z,100509.38
2023-04-22T09:32:59.368Z,100494.56
2023-04-22T09:43:07.843Z,100481.88
2023-04-22T09:53:12.072Z,100477.41
2023-04-22T10:03:23.172Z,100465.59
2023-04-22T10:13:25.286Z,100469.75
2023-04-22T10:23:33.676Z,100450.66
2023-04-22T10:33:43.817Z,100458.09
2023-04-22T10:43:58.740Z,100444.00
2023-04-22T10:54:03.002Z,100445.34
2023-04-22T11:04:37.531Z,100435.75
2023-04-22T11:14:41.083Z,100423.06
2023-04-22T11:24:57.095Z,100419.25
2023-04-22T11:34:59.153Z,100411.28
2023-04-22T11:45:01.125Z,100410.56
2023-04-22T11:55:03.144Z,100410.44
2023-04-22T12:05:10.653Z,100398.25
2023-04-22T12:15:16.179Z,100396.94
2023-04-22T12:25:20.945Z,100386.84
2023-04-22T12:35:24.015Z,100379.44
2023-04-22T12:45:31.945Z,100377.34
2023-04-22T12:55:35.971Z,100365.81
2023-04-22T13:05:46.881Z,100357.44
2023-04-22T13:15:54.156Z,100347.47
2023-04-22T13:26:02.600Z,100350.25
2023-04-22T13:36:20.796Z,100336.44
2023-04-22T13:46:25.096Z,100329.56
2023-04-22T13:56:28.411Z,100318.50
2023-04-22T14:06:30.636Z,100319.22
2023-04-22T14:16:32.690Z,100313.75
2023-04-22T14:26:34.685Z,100314.03
2023-04-22T14:36:36.874Z,100311.53
2023-04-22T14:46:38.810Z,100295.34
2023-04-22T14:56:40.871Z,100300.59
2023-04-22T15:06:43.090Z,100297.84
2023-04-22T15:16:45.159Z,100290.38
2023-04-22T15:26:48.197Z,100290.66
2023-04-22T15:36:50.272Z,100292.38
2023-04-22T15:46:53.306Z,100284.34
2023-04-22T15:56:55.319Z,100275.25
2023-04-22T16:06:59.533Z,100274.13
2023-04-22T16:17:02.947Z,100274.19
2023-04-22T16:27:04.999Z,100272.78
2023-04-22T16:37:07.106Z,100264.34
2023-04-22T16:47:09.109Z,100267.00
2023-04-22T16:57:11.891Z,100257.94
2023-04-22T17:07:14.884Z,100265.75
2023-04-22T17:17:16.845Z,100271.63
2023-04-22T17:27:18.844Z,100268.66
2023-04-22T17:37:20.913Z,100274.69
2023-04-22T17:47:22.976Z,100283.81
2023-04-22T17:57:26.155Z,100293.91
2023-04-22T18:07:28.260Z,100292.84
2023-04-22T18:17:30.370Z,100290.63
2023-04-22T18:27:32.335Z,100309.88
2023-04-22T18:37:35.675Z,100304.38
2023-04-22T18:47:37.819Z,100326.69
2023-04-22T18:57:43.714Z,100336.00
2023-04-22T19:07:46.211Z,100326.22
2023-04-22T19:17:49.595Z,100334.09
2023-04-22T19:27:51.910Z,100338.22
2023-04-22T19:37:55.406Z,100328.81
2023-04-22T19:47:59.343Z,100334.06
2023-04-22T19:58:01.964Z,100331.03
2023-04-22T20:08:04.120Z,100325.66
2023-04-22T20:18:09.579Z,100326.59
2023-04-22T20:28:12.266Z,100319.97
2023-04-22T20:38:16.483Z,100313.34
2023-04-22T20:48:18.533Z,100329.47
2023-04-22T20:58:20.548Z,100320.78
2023-04-22T21:08:24.930Z,100320.28
2023-04-22T21:18:29.331Z,100318.38
2023-04-22T21:28:31.665Z,100314.97
2023-04-22T21:38:34.634Z,100319.53
2023-04-22T21:48:36.431Z,100322.31
2023-04-22T21:58:38.497Z,100332.34
2023-04-22T22:08:42.725Z,100328.38
2023-04-22T22:18:48.879Z,100326.59
2023-04-22T22:28:53.233Z,100339.81
2023-04-22T22:38:59.268Z,100333.66
2023-04-22T22:49:06.590Z,100333.16
2023-04-22T22:59:15.449Z,100326.41
2023-04-22T23:09:19.324Z,100333.53
2023-04-22T23:19:21.386Z,100331.03
2023-04-22T23:29:29.648Z,100320.47
2023-04-22T23:39:31.695Z,100321.44
2023-04-22T23:49:33.675Z,100313.59
2023-04-22T23:59:35.964Z,100301.28
